Marvin, SD (57251)

9:43 AM CDT on July 30, 2014 (GMT -0500)
Linden Beach (KSDCORON2) Elev 974 ft | 45.41 °N, 96.65 °W | Change Station

Current weather conditions updated 8 seconds ago

Clear
Clear
70.0 °F
Feels Like 70.0 °F
N
0.0
Wind Variable Wind from WSW
Gusts 0.0 mph

Today is forecast to be nearly the same temperature as yesterday.

Today
High -- | Low -- °F
--% Chance of Precip.
Yesterday
High -- | Low -- °F
Precip. -- in
6:10 AM 8:57 PM
Waxing Crescent, 12% visible
Pressure 30.14 in
Visibility 10.0 miles
Clouds Clear
Dew Point 61 °F
Humidity 73%
Rainfall 0.00 in
Snow Depth Not available.
UV 4 out of 12
Pollen 7.20 out of 12
Air Quality Not available.
Flu Activity Not available.
METAR KVVV 301434Z AUTO 34003KT 10SM CLR 21/13 A3014 RMK AO2

More Conditions Fewer Conditions

Pressure 30.14 in
Visibility 10.0 miles
Clouds Clear
Dew Point 61 °F
Humidity 73%
Rainfall 0.00 in
Snow Depth Not available.
UV 4 out of 12
Pollen 7.20 out of 12
Air Quality Not available.
Flu Activity Not available.
METAR KVVV 301434Z AUTO 34003KT 10SM CLR 21/13 A3014 RMK AO2

More Conditions Fewer Conditions

10-Day Weather Forecast

Almanac

Astronomy

Jul. 30, 2014 Rise Set
Actual Time 6:10 AM CDT 8:57 PM CDT
Civil Twilight 5:35 AM CDT 9:31 PM CDT
Nautical Twilight 4:52 AM CDT 10:14 PM CDT
Astronomical Twilight 4:01 AM CDT 11:05 PM CDT
Moon 9:55 AM CDT 10:26 PM CDT
Length of Visible Light 15h 55m
Length of Day
14h 47m
Tomorrow will be 2m 23s shorter.
Waxing Crescent, 12% of the Moon is Illuminated
Today
Waxing Crescent
Aug 3
First Quarter
Aug 10
Full
Aug 17
Last Quarter
Aug 25
New

Today's Extremes

State Highs State Lows

Community

WunderPhotos

Upload Photos

1,739,101 photos uploaded!

Nearby

Snow Depth

Station Depth Elevation
North Rapid Creek 0 in 6130 ft
Blind Park 0 in 6890 ft

Earthquake Activity

City Distance Mag. Time & Date
No recent earthquake activity has been reported nearby.
Minimum magnitude displayed is 2.5.

Coastal Water Temperatures

Place Temperature
No Stations Reporting

Nearby Weather Stations

Station Location Temp. Dew Point Humidity Wind Precip. Elev Updated Type
Linden Beach, Corona, SD 70.0 °F 61 °F 73% WSW  at  0.0 mph 0.00 in / hr 974 ft 9:43 AM CDT Rapid Fire
NonFedAWOS MILBANK , Milbank, SD 63 °F 57 °F 82% North  at  - 0.00 in / hr 1116 ft 8:35 AM CDT MADIS
Kent, Florence, SD 65.5 °F 60 °F 81% NNE  at  0.0 mph 0.00 in / hr 1801 ft 9:35 AM CDT Normal

Show More Stations Show Fewer Stations